sensor_id;sensor_type;location;lat;lon;timestamp;pressure;altitude;pressure_sealevel;temperature;humidity
64115;BME280;62188;35.640;139.748;2023-02-13T00:01:43;101056.03;;;14.52;40.51
64115;BME280;62188;35.640;139.748;2023-02-13T00:04:09;101057.64;;;14.31;40.52
64115;BME280;62188;35.640;139.748;2023-02-13T00:06:34;101052.84;;;14.66;40.44
64115;BME280;62188;35.640;139.748;2023-02-13T00:08:59;101048.33;;;14.65;40.42
64115;BME280;62188;35.640;139.748;2023-02-13T00:11:25;101046.82;;;14.97;40.39
64115;BME280;62188;35.640;139.748;2023-02-13T00:13:50;101048.33;;;14.80;40.33
64115;BME280;62188;35.640;139.748;2023-02-13T00:16:16;101045.80;;;14.90;40.28
64115;BME280;62188;35.640;139.748;2023-02-13T00:18:41;101040.90;;;14.80;39.73
64115;BME280;62188;35.640;139.748;2023-02-13T00:21:09;101036.48;;;15.10;39.72
64115;BME280;62188;35.640;139.748;2023-02-13T00:23:34;101028.74;;;14.59;39.77
64115;BME280;62188;35.640;139.748;2023-02-13T00:25:57;101026.83;;;14.62;39.65
64115;BME280;62188;35.640;139.748;2023-02-13T00:28:23;101024.39;;;14.82;39.85
64115;BME280;62188;35.640;139.748;2023-02-13T00:30:48;101021.92;;;14.91;39.67
64115;BME280;62188;35.640;139.748;2023-02-13T00:33:14;101019.15;;;14.92;39.26
64115;BME280;62188;35.640;139.748;2023-02-13T00:35:38;101017.56;;;14.65;39.37
64115;BME280;62188;35.640;139.748;2023-02-13T00:38:03;101012.62;;;14.74;39.54
64115;BME280;62188;35.640;139.748;2023-02-13T00:40:29;101005.04;;;14.99;39.64
64115;BME280;62188;35.640;139.748;2023-02-13T00:42:54;101005.02;;;15.02;39.70
64115;BME280;62188;35.640;139.748;2023-02-13T00:45:20;101007.06;;;14.80;39.87
64115;BME280;62188;35.640;139.748;2023-02-13T00:47:45;101008.93;;;14.83;39.69
64115;BME280;62188;35.640;139.748;2023-02-13T00:50:11;101001.41;;;14.65;39.64
64115;BME280;62188;35.640;139.748;2023-02-13T00:52:36;101001.39;;;15.14;39.70
64115;BME280;62188;35.640;139.748;2023-02-13T00:55:01;100995.63;;;14.72;39.77
64115;BME280;62188;35.640;139.748;2023-02-13T00:57:26;100996.05;;;15.20;39.69
64115;BME280;62188;35.640;139.748;2023-02-13T00:59:51;101002.32;;;15.23;39.77
64115;BME280;62188;35.640;139.748;2023-02-13T01:02:17;101000.78;;;14.66;39.77
64115;BME280;62188;35.640;139.748;2023-02-13T01:04:42;100992.29;;;14.86;39.56
64115;BME280;62188;35.640;139.748;2023-02-13T01:07:08;100988.47;;;14.80;39.84
64115;BME280;62188;35.640;139.748;2023-02-13T01:09:34;100995.65;;;14.59;39.96
64115;BME280;62188;35.640;139.748;2023-02-13T01:11:59;100986.62;;;14.79;39.98
64115;BME280;62188;35.640;139.748;2023-02-13T01:14:25;100975.97;;;15.02;39.89
64115;BME280;62188;35.640;139.748;2023-02-13T01:16:51;100963.00;;;14.94;40.08
64115;BME280;62188;35.640;139.748;2023-02-13T01:19:16;100963.28;;;14.88;40.02
64115;BME280;62188;35.640;139.748;2023-02-13T01:21:42;100964.55;;;14.61;40.01
64115;BME280;62188;35.640;139.748;2023-02-13T01:24:07;100964.73;;;14.62;39.87
64115;BME280;62188;35.640;139.748;2023-02-13T01:26:32;100955.79;;;14.85;39.76
64115;BME280;62188;35.640;139.748;2023-02-13T01:28:57;100948.27;;;14.63;40.00
64115;BME280;62188;35.640;139.748;2023-02-13T01:31:24;100937.17;;;14.91;40.05
64115;BME280;62188;35.640;139.748;2023-02-13T01:33:48;100927.46;;;14.90;39.76
64115;BME280;62188;35.640;139.748;2023-02-13T01:36:13;100918.06;;;14.69;39.61
64115;BME280;62188;35.640;139.748;2023-02-13T01:38:39;100919.90;;;14.62;39.97
64115;BME280;62188;35.640;139.748;2023-02-13T01:41:04;100924.65;;;14.67;39.64
64115;BME280;62188;35.640;139.748;2023-02-13T01:43:43;100920.58;;;14.65;39.90
64115;BME280;62188;35.640;139.748;2023-02-13T01:45:56;100907.83;;;14.67;39.83
64115;BME280;62188;35.640;139.748;2023-02-13T01:48:24;100899.53;;;14.43;39.76
64115;BME280;62188;35.640;139.748;2023-02-13T01:50:50;100890.25;;;14.67;39.87
64115;BME280;62188;35.640;139.748;2023-02-13T01:53:16;100885.01;;;14.42;39.76
64115;BME280;62188;35.640;139.748;2023-02-13T01:55:41;100882.24;;;14.44;39.60
64115;BME280;62188;35.640;139.748;2023-02-13T01:58:08;100878.28;;;14.57;39.28
64115;BME280;62188;35.640;139.748;2023-02-13T02:00:28;100877.91;;;14.56;39.59
64115;BME280;62188;35.640;139.748;2023-02-13T02:02:59;100869.86;;;14.71;39.40
64115;BME280;62188;35.640;139.748;2023-02-13T02:05:21;100866.30;;;14.26;39.19
64115;BME280;62188;35.640;139.748;2023-02-13T02:07:44;100857.36;;;14.52;39.38
64115;BME280;62188;35.640;139.748;2023-02-13T02:10:13;100854.18;;;14.78;39.08
64115;BME280;62188;35.640;139.748;2023-02-13T02:12:40;100850.51;;;14.28;38.86
64115;BME280;62188;35.640;139.748;2023-02-13T02:15:02;100851.72;;;14.28;38.89
64115;BME280;62188;35.640;139.748;2023-02-13T02:17:27;100841.14;;;14.23;39.04
64115;BME280;62188;35.640;139.748;2023-02-13T02:20:01;100826.44;;;14.21;38.99
64115;BME280;62188;35.640;139.748;2023-02-13T02:22:28;100823.12;;;13.94;38.94
64115;BME280;62188;35.640;139.748;2023-02-13T02:32:15;100802.68;;;13.41;39.93
64115;BME280;62188;35.640;139.748;2023-02-13T02:34:31;100799.45;;;13.34;40.35
64115;BME280;62188;35.640;139.748;2023-02-13T02:37:03;100791.61;;;12.62;40.61
64115;BME280;62188;35.640;139.748;2023-02-13T02:39:24;100783.43;;;12.92;41.07
64115;BME280;62188;35.640;139.748;2023-02-13T02:41:53;100767.49;;;12.83;41.29
64115;BME280;62188;35.640;139.748;2023-02-13T02:44:14;100757.22;;;12.90;41.71
64115;BME280;62188;35.640;139.748;2023-02-13T02:46:38;100748.47;;;12.79;42.05
64115;BME280;62188;35.640;139.748;2023-02-13T02:49:03;100743.94;;;13.15;41.90
64115;BME280;62188;35.640;139.748;2023-02-13T02:51:26;100741.11;;;12.99;41.97
64115;BME280;62188;35.640;139.748;2023-02-13T02:53:54;100738.13;;;13.42;41.92
64115;BME280;62188;35.640;139.748;2023-02-13T02:56:21;100720.80;;;13.19;41.90
64115;BME280;62188;35.640;139.748;2023-02-13T02:58:42;100713.21;;;13.14;41.73
64115;BME280;62188;35.640;139.748;2023-02-13T03:01:07;100711.67;;;13.27;42.11
64115;BME280;62188;35.640;139.748;2023-02-13T03:03:31;100701.46;;;13.31;41.69
64115;BME280;62188;35.640;139.748;2023-02-13T03:05:56;100696.36;;;13.37;41.73
64115;BME280;62188;35.640;139.748;2023-02-13T03:08:21;100692.74;;;13.31;41.91
64115;BME280;62188;35.640;139.748;2023-02-13T03:10:47;100684.70;;;13.37;41.92
64115;BME280;62188;35.640;139.748;2023-02-13T03:13:15;100676.73;;;13.44;41.75
64115;BME280;62188;35.640;139.748;2023-02-13T03:15:38;100671.91;;;13.43;41.18
64115;BME280;62188;35.640;139.748;2023-02-13T03:18:02;100667.07;;;13.48;41.34
64115;BME280;62188;35.640;139.748;2023-02-13T03:20:35;100663.78;;;13.36;41.03
64115;BME280;62188;35.640;139.748;2023-02-13T03:23:04;100656.34;;;13.18;41.35
64115;BME280;62188;35.640;139.748;2023-02-13T03:25:28;100652.57;;;13.44;41.14
64115;BME280;62188;35.640;139.748;2023-02-13T03:27:47;100648.27;;;13.44;41.24
64115;BME280;62188;35.640;139.748;2023-02-13T03:30:18;100633.05;;;13.71;41.10
64115;BME280;62188;35.640;139.748;2023-02-13T03:32:38;100621.01;;;13.48;41.26
64115;BME280;62188;35.640;139.748;2023-02-13T03:35:10;100618.14;;;13.51;40.94
64115;BME280;62188;35.640;139.748;2023-02-13T03:37:29;100615.07;;;13.49;41.01
64115;BME280;62188;35.640;139.748;2023-02-13T03:39:55;100614.84;;;13.42;40.99
64115;BME280;62188;35.640;139.748;2023-02-13T03:42:20;100610.87;;;13.51;40.97
64115;BME280;62188;35.640;139.748;2023-02-13T03:44:43;100602.17;;;13.36;41.22
64115;BME280;62188;35.640;139.748;2023-02-13T03:47:08;100593.54;;;13.52;40.67
64115;BME280;62188;35.640;139.748;2023-02-13T03:49:35;100586.39;;;13.35;40.93
64115;BME280;62188;35.640;139.748;2023-02-13T03:51:59;100577.52;;;13.41;40.99
64115;BME280;62188;35.640;139.748;2023-02-13T03:54:24;100561.84;;;13.44;40.83
64115;BME280;62188;35.640;139.748;2023-02-13T03:56:48;100555.62;;;13.49;40.76
64115;BME280;62188;35.640;139.748;2023-02-13T03:59:20;100553.06;;;13.46;40.56
64115;BME280;62188;35.640;139.748;2023-02-13T04:01:39;100542.36;;;13.45;40.77
64115;BME280;62188;35.640;139.748;2023-02-13T04:04:08;100542.03;;;13.53;40.90
64115;BME280;62188;35.640;139.748;2023-02-13T04:06:31;100538.51;;;13.50;40.76
64115;BME280;62188;35.640;139.748;2023-02-13T04:08:55;100529.38;;;13.75;40.59
64115;BME280;62188;35.640;139.748;2023-02-13T04:11:25;100526.09;;;13.37;40.80
64115;BME280;62188;35.640;139.748;2023-02-13T04:13:49;100527.31;;;13.43;41.14
64115;BME280;62188;35.640;139.748;2023-02-13T04:16:12;100516.97;;;13.45;40.89
64115;BME280;62188;35.640;139.748;2023-02-13T04:18:36;100513.22;;;13.44;40.85
64115;BME280;62188;35.640;139.748;2023-02-13T04:21:02;100507.13;;;13.58;41.04
64115;BME280;62188;35.640;139.748;2023-02-13T04:23:27;100502.89;;;13.43;40.54
64115;BME280;62188;35.640;139.748;2023-02-13T04:25:54;100498.63;;;13.40;40.90
64115;BME280;62188;35.640;139.748;2023-02-13T04:28:18;100492.05;;;13.43;40.87
64115;BME280;62188;35.640;139.748;2023-02-13T04:30:44;100494.32;;;13.42;41.15
64115;BME280;62188;35.640;139.748;2023-02-13T04:33:09;100496.02;;;13.46;41.33
64115;BME280;62188;35.640;139.748;2023-02-13T04:35:35;100494.68;;;13.47;40.93
64115;BME280;62188;35.640;139.748;2023-02-13T04:38:00;100487.06;;;13.36;40.76
64115;BME280;62188;35.640;139.748;2023-02-13T04:40:26;100483.08;;;13.26;40.67
64115;BME280;62188;35.640;139.748;2023-02-13T04:42:52;100466.53;;;13.18;40.82
64115;BME280;62188;35.640;139.748;2023-02-13T04:45:17;100462.62;;;13.13;40.81
64115;BME280;62188;35.640;139.748;2023-02-13T04:47:45;100459.64;;;13.15;41.14
64115;BME280;62188;35.640;139.748;2023-02-13T04:50:08;100456.38;;;13.11;41.05
64115;BME280;62188;35.640;139.748;2023-02-13T04:52:33;100460.09;;;13.30;40.62
64115;BME280;62188;35.640;139.748;2023-02-13T04:54:59;100458.28;;;13.37;41.07
64115;BME280;62188;35.640;139.748;2023-02-13T04:57:24;100455.09;;;13.18;40.93
64115;BME280;62188;35.640;139.748;2023-02-13T04:59:49;100442.87;;;13.63;41.07
64115;BME280;62188;35.640;139.748;2023-02-13T05:02:15;100443.16;;;13.43;41.14
64115;BME280;62188;35.640;139.748;2023-02-13T05:04:40;100451.47;;;13.12;41.11
64115;BME280;62188;35.640;139.748;2023-02-13T05:07:06;100446.44;;;13.15;41.21
64115;BME280;62188;35.640;139.748;2023-02-13T05:09:32;100439.79;;;13.23;41.17
64115;BME280;62188;35.640;139.748;2023-02-13T05:11:57;100438.00;;;13.53;40.83
64115;BME280;62188;35.640;139.748;2023-02-13T05:14:23;100432.94;;;13.22;41.25
64115;BME280;62188;35.640;139.748;2023-02-13T05:16:49;100426.57;;;13.23;41.09
64115;BME280;62188;35.640;139.748;2023-02-13T05:19:14;100425.65;;;13.20;41.07
64115;BME280;62188;35.640;139.748;2023-02-13T05:21:40;100421.07;;;13.31;41.17
64115;BME280;62188;35.640;139.748;2023-02-13T05:24:05;100428.45;;;13.37;41.25
64115;BME280;62188;35.640;139.748;2023-02-13T05:26:30;100430.65;;;13.46;41.27
64115;BME280;62188;35.640;139.748;2023-02-13T05:28:56;100427.58;;;13.46;41.01
64115;BME280;62188;35.640;139.748;2023-02-13T05:31:21;100413.33;;;13.45;40.90
64115;BME280;62188;35.640;139.748;2023-02-13T05:33:46;100407.30;;;13.53;41.09
64115;BME280;62188;35.640;139.748;2023-02-13T05:36:11;100402.71;;;13.56;41.04
64115;BME280;62188;35.640;139.748;2023-02-13T05:38:37;100406.88;;;13.52;41.05
64115;BME280;62188;35.640;139.748;2023-02-13T05:41:02;100414.32;;;13.45;40.87
64115;BME280;62188;35.640;139.748;2023-02-13T05:43:27;100418.04;;;13.47;41.09
64115;BME280;62188;35.640;139.748;2023-02-13T05:46:01;100427.81;;;13.42;40.94
64115;BME280;62188;35.640;139.748;2023-02-13T05:48:18;100428.51;;;13.42;41.17
64115;BME280;62188;35.640;139.748;2023-02-13T05:50:45;100425.46;;;13.41;41.51
64115;BME280;62188;35.640;139.748;2023-02-13T05:53:09;100429.16;;;13.48;41.46
64115;BME280;62188;35.640;139.748;2023-02-13T05:55:35;100427.92;;;13.37;41.34
64115;BME280;62188;35.640;139.748;2023-02-13T05:58:00;100427.33;;;13.25;41.47
64115;BME280;62188;35.640;139.748;2023-02-13T06:00:26;100423.97;;;13.18;41.53
64115;BME280;62188;35.640;139.748;2023-02-13T06:02:52;100425.13;;;13.10;41.53
64115;BME280;62188;35.640;139.748;2023-02-13T06:05:16;100423.52;;;12.98;41.32
64115;BME280;62188;35.640;139.748;2023-02-13T06:07:42;100421.88;;;13.07;41.81
64115;BME280;62188;35.640;139.748;2023-02-13T06:10:08;100422.32;;;13.02;41.88
64115;BME280;62188;35.640;139.748;2023-02-13T06:12:33;100413.57;;;12.99;41.96
64115;BME280;62188;35.640;139.748;2023-02-13T06:14:58;100411.84;;;12.97;41.91
64115;BME280;62188;35.640;139.748;2023-02-13T06:17:23;100419.18;;;13.02;42.21
64115;BME280;62188;35.640;139.748;2023-02-13T06:19:49;100413.16;;;13.04;42.05
64115;BME280;62188;35.640;139.748;2023-02-13T06:22:15;100411.50;;;13.05;41.94
64115;BME280;62188;35.640;139.748;2023-02-13T06:24:40;100410.17;;;12.99;42.07
64115;BME280;62188;35.640;139.748;2023-02-13T06:27:06;100394.83;;;12.91;42.09
64115;BME280;62188;35.640;139.748;2023-02-13T06:29:32;100386.54;;;13.09;42.44
64115;BME280;62188;35.640;139.748;2023-02-13T06:31:58;100380.14;;;12.80;42.35
64115;BME280;62188;35.640;139.748;2023-02-13T06:34:23;100384.89;;;12.95;42.82
64115;BME280;62188;35.640;139.748;2023-02-13T06:36:49;100389.77;;;12.95;42.62
64115;BME280;62188;35.640;139.748;2023-02-13T06:39:14;100385.85;;;13.03;42.54
64115;BME280;62188;35.640;139.748;2023-02-13T06:41:40;100389.01;;;12.86;42.64
64115;BME280;62188;35.640;139.748;2023-02-13T06:44:06;100386.89;;;12.87;42.37
64115;BME280;62188;35.640;139.748;2023-02-13T06:46:30;100385.41;;;12.78;42.36
64115;BME280;62188;35.640;139.748;2023-02-13T06:48:56;100374.17;;;12.75;42.33
64115;BME280;62188;35.640;139.748;2023-02-13T06:51:22;100377.64;;;13.05;42.55
64115;BME280;62188;35.640;139.748;2023-02-13T06:53:47;100384.25;;;12.88;42.35
64115;BME280;62188;35.640;139.748;2023-02-13T06:56:13;100388.35;;;13.17;42.03
64115;BME280;62188;35.640;139.748;2023-02-13T06:58:38;100391.96;;;13.10;41.98
64115;BME280;62188;35.640;139.748;2023-02-13T07:01:03;100390.30;;;13.08;41.90
64115;BME280;62188;35.640;139.748;2023-02-13T07:03:29;100387.45;;;13.14;42.20
64115;BME280;62188;35.640;139.748;2023-02-13T07:05:54;100383.36;;;13.16;41.83
64115;BME280;62188;35.640;139.748;2023-02-13T07:08:20;100380.33;;;12.96;41.85
64115;BME280;62188;35.640;139.748;2023-02-13T07:10:45;100380.91;;;12.96;41.73
64115;BME280;62188;35.640;139.748;2023-02-13T07:13:11;100384.21;;;13.25;41.85
64115;BME280;62188;35.640;139.748;2023-02-13T07:15:37;100373.00;;;13.08;41.50
64115;BME280;62188;35.640;139.748;2023-02-13T07:18:02;100360.85;;;12.87;41.20
64115;BME280;62188;35.640;139.748;2023-02-13T07:20:28;100355.63;;;12.82;41.70
64115;BME280;62188;35.640;139.748;2023-02-13T07:22:56;100364.58;;;13.04;41.85
64115;BME280;62188;35.640;139.748;2023-02-13T07:25:18;100361.68;;;12.86;41.83
64115;BME280;62188;35.640;139.748;2023-02-13T07:27:44;100367.01;;;12.87;41.73
64115;BME280;62188;35.640;139.748;2023-02-13T07:30:10;100371.20;;;13.33;41.85
64115;BME280;62188;35.640;139.748;2023-02-13T07:32:35;100372.11;;;12.82;41.66
64115;BME280;62188;35.640;139.748;2023-02-13T07:35:01;100365.68;;;12.88;41.69
64115;BME280;62188;35.640;139.748;2023-02-13T07:37:28;100359.05;;;13.09;41.75
64115;BME280;62188;35.640;139.748;2023-02-13T07:39:52;100363.70;;;13.11;41.81
64115;BME280;62188;35.640;139.748;2023-02-13T07:42:18;100365.36;;;12.87;41.45
64115;BME280;62188;35.640;139.748;2023-02-13T07:44:43;100368.48;;;13.16;41.69
64115;BME280;62188;35.640;139.748;2023-02-13T07:47:08;100371.86;;;12.95;41.68
64115;BME280;62188;35.640;139.748;2023-02-13T07:49:34;100387.31;;;13.17;41.41
64115;BME280;62188;35.640;139.748;2023-02-13T07:52:00;100388.89;;;12.81;41.19
64115;BME280;62188;35.640;139.748;2023-02-13T07:54:25;100388.25;;;12.45;41.18
64115;BME280;62188;35.640;139.748;2023-02-13T07:56:51;100384.97;;;12.38;41.37
64115;BME280;62188;35.640;139.748;2023-02-13T07:59:17;100389.04;;;12.90;41.34
64115;BME280;62188;35.640;139.748;2023-02-13T08:01:42;100382.64;;;12.35;41.56
64115;BME280;62188;35.640;139.748;2023-02-13T08:04:08;100386.74;;;12.55;41.25
64115;BME280;62188;35.640;139.748;2023-02-13T08:06:34;100394.47;;;12.67;41.08
64115;BME280;62188;35.640;139.748;2023-02-13T08:08:59;100399.90;;;12.49;41.56
64115;BME280;62188;35.640;139.748;2023-02-13T08:11:30;100395.91;;;12.53;41.49
64115;BME280;62188;35.640;139.748;2023-02-13T08:13:51;100399.71;;;12.65;41.46
64115;BME280;62188;35.640;139.748;2023-02-13T08:16:16;100388.26;;;12.43;41.08
64115;BME280;62188;35.640;139.748;2023-02-13T08:18:42;100391.57;;;12.48;41.06
64115;BME280;62188;35.640;139.748;2023-02-13T08:21:08;100390.17;;;12.47;41.24
64115;BME280;62188;35.640;139.748;2023-02-13T08:23:33;100389.31;;;12.31;41.30
64115;BME280;62188;35.640;139.748;2023-02-13T08:26:00;100381.26;;;12.35;41.12
64115;BME280;62188;35.640;139.748;2023-02-13T08:28:25;100383.97;;;12.66;41.16
64115;BME280;62188;35.640;139.748;2023-02-13T08:30:50;100371.34;;;12.24;40.65
64115;BME280;62188;35.640;139.748;2023-02-13T08:33:16;100372.22;;;12.26;40.76
64115;BME280;62188;35.640;139.748;2023-02-13T08:35:42;100377.59;;;12.17;40.85
64115;BME280;62188;35.640;139.748;2023-02-13T08:38:08;100397.43;;;12.24;41.07
64115;BME280;62188;35.640;139.748;2023-02-13T08:40:34;100405.65;;;12.23;40.92
64115;BME280;62188;35.640;139.748;2023-02-13T08:43:01;100407.69;;;12.39;41.08
64115;BME280;62188;35.640;139.748;2023-02-13T08:45:25;100410.51;;;12.41;40.93
64115;BME280;62188;35.640;139.748;2023-02-13T08:47:50;100417.33;;;12.47;40.93
64115;BME280;62188;35.640;139.748;2023-02-13T08:50:16;100423.69;;;12.59;40.73
64115;BME280;62188;35.640;139.748;2023-02-13T08:52:42;100439.91;;;12.64;40.58
64115;BME280;62188;35.640;139.748;2023-02-13T08:55:08;100439.32;;;12.45;40.24
64115;BME280;62188;35.640;139.748;2023-02-13T08:57:33;100443.62;;;12.69;39.81
64115;BME280;62188;35.640;139.748;2023-02-13T08:59:59;100450.37;;;12.51;40.03
64115;BME280;62188;35.640;139.748;2023-02-13T09:02:25;100450.32;;;12.51;40.05
64115;BME280;62188;35.640;139.748;2023-02-13T09:04:50;100448.09;;;12.43;40.14
64115;BME280;62188;35.640;139.748;2023-02-13T09:07:16;100452.42;;;12.71;39.74
64115;BME280;62188;35.640;139.748;2023-02-13T09:09:41;100451.79;;;12.64;39.80
64115;BME280;62188;35.640;139.748;2023-02-13T09:12:07;100450.52;;;12.60;39.98
64115;BME280;62188;35.640;139.748;2023-02-13T09:14:33;100464.03;;;12.52;40.13
64115;BME280;62188;35.640;139.748;2023-02-13T09:16:59;100474.35;;;12.23;40.03
64115;BME280;62188;35.640;139.748;2023-02-13T09:19:25;100478.49;;;12.22;40.03
64115;BME280;62188;35.640;139.748;2023-02-13T09:21:50;100475.03;;;12.43;40.30
64115;BME280;62188;35.640;139.748;2023-02-13T09:24:16;100474.79;;;12.26;40.33
64115;BME280;62188;35.640;139.748;2023-02-13T09:26:41;100483.14;;;12.26;40.12
64115;BME280;62188;35.640;139.748;2023-02-13T09:29:07;100491.41;;;12.45;40.16
64115;BME280;62188;35.640;139.748;2023-02-13T09:31:33;100503.18;;;12.50;40.06
64115;BME280;62188;35.640;139.748;2023-02-13T09:33:59;100504.90;;;12.51;40.12
64115;BME280;62188;35.640;139.748;2023-02-13T09:36:24;100504.44;;;12.51;40.30
64115;BME280;62188;35.640;139.748;2023-02-13T09:38:53;100505.17;;;12.43;40.01
64115;BME280;62188;35.640;139.748;2023-02-13T09:41:20;100517.62;;;12.36;40.30
64115;BME280;62188;35.640;139.748;2023-02-13T09:43:46;100517.71;;;12.20;40.40
64115;BME280;62188;35.640;139.748;2023-02-13T09:46:13;100519.58;;;12.43;40.41
64115;BME280;62188;35.640;139.748;2023-02-13T09:48:35;100512.46;;;12.37;40.26
64115;BME280;62188;35.640;139.748;2023-02-13T09:50:58;100514.34;;;12.18;40.65
64115;BME280;62188;35.640;139.748;2023-02-13T09:53:26;100514.77;;;12.42;40.69
64115;BME280;62188;35.640;139.748;2023-02-13T09:55:57;100525.91;;;12.05;40.95
64115;BME280;62188;35.640;139.748;2023-02-13T09:58:21;100530.50;;;12.34;41.12
64115;BME280;62188;35.640;139.748;2023-02-13T10:00:43;100529.00;;;12.45;41.01
64115;BME280;62188;35.640;139.748;2023-02-13T10:03:17;100525.71;;;12.24;40.36
64115;BME280;62188;35.640;139.748;2023-02-13T10:05:45;100536.58;;;12.51;40.61
64115;BME280;62188;35.640;139.748;2023-02-13T10:08:04;100539.15;;;12.57;40.56
64115;BME280;62188;35.640;139.748;2023-02-13T10:10:29;100536.37;;;12.26;40.28
64115;BME280;62188;35.640;139.748;2023-02-13T10:13:05;100543.97;;;12.56;40.66
64115;BME280;62188;35.640;139.748;2023-02-13T10:15:22;100562.38;;;12.59;40.33
64115;BME280;62188;35.640;139.748;2023-02-13T10:17:43;100565.77;;;12.61;40.26
64115;BME280;62188;35.640;139.748;2023-02-13T10:20:14;100570.92;;;12.40;40.42
64115;BME280;62188;35.640;139.748;2023-02-13T10:22:35;100569.70;;;12.69;40.12
64115;BME280;62188;35.640;139.748;2023-02-13T10:25:02;100576.23;;;12.52;40.20
64115;BME280;62188;35.640;139.748;2023-02-13T10:27:26;100568.74;;;12.68;39.69
64115;BME280;62188;35.640;139.748;2023-02-13T10:29:54;100571.89;;;12.21;39.85
64115;BME280;62188;35.640;139.748;2023-02-13T10:32:18;100575.58;;;12.15;40.17
64115;BME280;62188;35.640;139.748;2023-02-13T10:34:43;100580.65;;;12.12;40.05
64115;BME280;62188;35.640;139.748;2023-02-13T10:37:12;100581.03;;;12.11;40.57
64115;BME280;62188;35.640;139.748;2023-02-13T10:39:31;100574.69;;;12.43;40.70
64115;BME280;62188;35.640;139.748;2023-02-13T10:42:04;100565.24;;;12.49;40.44
64115;BME280;62188;35.640;139.748;2023-02-13T10:44:33;100573.23;;;12.42;40.80
64115;BME280;62188;35.640;139.748;2023-02-13T10:46:57;100571.61;;;12.22;40.72
64115;BME280;62188;35.640;139.748;2023-02-13T10:49:26;100568.81;;;12.60;40.86
64115;BME280;62188;35.640;139.748;2023-02-13T10:51:44;100572.71;;;12.36;40.52
64115;BME280;62188;35.640;139.748;2023-02-13T10:56:34;100577.96;;;12.56;40.26
64115;BME280;62188;35.640;139.748;2023-02-13T10:59:10;100579.02;;;12.38;40.55
64115;BME280;62188;35.640;139.748;2023-02-13T11:01:26;100579.49;;;12.47;40.31
64115;BME280;62188;35.640;139.748;2023-02-13T11:03:49;100583.84;;;12.53;40.33
64115;BME280;62188;35.640;139.748;2023-02-13T11:06:16;100580.13;;;12.59;40.29
64115;BME280;62188;35.640;139.748;2023-02-13T11:08:42;100576.98;;;12.85;40.23
64115;BME280;62188;35.640;139.748;2023-02-13T11:13:30;100567.34;;;12.60;39.81
64115;BME280;62188;35.640;139.748;2023-02-13T11:16:01;100570.82;;;12.48;40.40
64115;BME280;62188;35.640;139.748;2023-02-13T11:18:23;100567.21;;;12.53;40.13
64115;BME280;62188;35.640;139.748;2023-02-13T11:20:47;100561.68;;;12.29;39.92
64115;BME280;62188;35.640;139.748;2023-02-13T11:25:38;100552.18;;;12.30;40.13
64115;BME280;62188;35.640;139.748;2023-02-13T11:28:12;100554.02;;;12.59;40.20
64115;BME280;62188;35.640;139.748;2023-02-13T11:30:32;100547.41;;;12.64;40.11
64115;BME280;62188;35.640;139.748;2023-02-13T11:32:59;100544.11;;;12.58;39.86
64115;BME280;62188;35.640;139.748;2023-02-13T11:35:27;100532.66;;;12.42;40.08
64115;BME280;62188;35.640;139.748;2023-02-13T11:37:47;100527.64;;;12.88;40.13
64115;BME280;62188;35.640;139.748;2023-02-13T11:40:27;100522.90;;;12.88;39.88
64115;BME280;62188;35.640;139.748;2023-02-13T11:42:50;100516.98;;;12.79;40.08
64115;BME280;62188;35.640;139.748;2023-02-13T11:45:18;100502.94;;;12.58;39.84
64115;BME280;62188;35.640;139.748;2023-02-13T11:47:35;100494.26;;;12.62;39.84
64115;BME280;62188;35.640;139.748;2023-02-13T11:49:55;100486.38;;;12.67;39.67
64115;BME280;62188;35.640;139.748;2023-02-13T11:52:26;100486.18;;;12.36;39.72
64115;BME280;62188;35.640;139.748;2023-02-13T11:54:55;100481.54;;;12.86;39.37
64115;BME280;62188;35.640;139.748;2023-02-13T11:57:19;100486.11;;;12.37;39.52
64115;BME280;62188;35.640;139.748;2023-02-13T11:59:41;100482.98;;;12.81;39.41
64115;BME280;62188;35.640;139.748;2023-02-13T12:02:15;100485.02;;;12.32;38.73
64115;BME280;62188;35.640;139.748;2023-02-13T12:04:29;100482.20;;;12.38;39.32
64115;BME280;62188;35.640;139.748;2023-02-13T12:07:02;100483.50;;;12.35;39.61
64115;BME280;62188;35.640;139.748;2023-02-13T12:09:20;100483.26;;;12.21;39.58
64115;BME280;62188;35.640;139.748;2023-02-13T12:11:49;100476.25;;;12.51;39.65
64115;BME280;62188;35.640;139.748;2023-02-13T12:14:15;100475.86;;;12.44;39.39
64115;BME280;62188;35.640;139.748;2023-02-13T12:16:39;100472.31;;;12.25;39.47
64115;BME280;62188;35.640;139.748;2023-02-13T12:19:06;100477.10;;;12.14;39.62
64115;BME280;62188;35.640;139.748;2023-02-13T12:21:41;100477.01;;;12.45;39.17
64115;BME280;62188;35.640;139.748;2023-02-13T12:23:59;100477.06;;;12.72;39.12
64115;BME280;62188;35.640;139.748;2023-02-13T12:26:28;100482.80;;;12.71;39.21
64115;BME280;62188;35.640;139.748;2023-02-13T12:28:58;100485.27;;;12.54;38.94
64115;BME280;62188;35.640;139.748;2023-02-13T12:31:27;100484.75;;;12.57;38.70
64115;BME280;62188;35.640;139.748;2023-02-13T12:33:54;100487.80;;;12.50;38.74
64115;BME280;62188;35.640;139.748;2023-02-13T12:36:08;100489.31;;;12.48;39.28